sensor_id;sensor_type;location;lat;lon;timestamp;P1;durP1;ratioP1;P2;durP2;ratioP2
21237;SDS011;10777;50.828;3.264;2022-08-01T00:01:05;12.77;;;3.80;;
21237;SDS011;10777;50.828;3.264;2022-08-01T00:03:31;8.73;;;3.30;;
21237;SDS011;10777;50.828;3.264;2022-08-01T00:05:57;8.50;;;3.60;;
21237;SDS011;10777;50.828;3.264;2022-08-01T00:08:22;9.80;;;3.40;;
21237;SDS011;10777;50.828;3.264;2022-08-01T00:10:48;11.88;;;3.83;;
21237;SDS011;10777;50.828;3.264;2022-08-01T00:13:14;13.20;;;3.75;;
21237;SDS011;10777;50.828;3.264;2022-08-01T00:15:40;7.60;;;3.22;;
21237;SDS011;10777;50.828;3.264;2022-08-01T00:18:05;10.18;;;3.95;;
21237;SDS011;10777;50.828;3.264;2022-08-01T00:20:31;10.48;;;3.75;;
21237;SDS011;10777;50.828;3.264;2022-08-01T00:22:57;10.35;;;3.63;;
21237;SDS011;10777;50.828;3.264;2022-08-01T00:25:22;8.10;;;3.92;;
21237;SDS011;10777;50.828;3.264;2022-08-01T00:27:48;11.20;;;3.78;;
21237;SDS011;10777;50.828;3.264;2022-08-01T00:30:14;16.90;;;3.53;;
21237;SDS011;10777;50.828;3.264;2022-08-01T00:32:40;11.20;;;3.78;;
21237;SDS011;10777;50.828;3.264;2022-08-01T00:35:07;15.13;;;3.72;;
21237;SDS011;10777;50.828;3.264;2022-08-01T00:37:33;14.38;;;3.72;;
21237;SDS011;10777;50.828;3.264;2022-08-01T00:39:58;11.15;;;4.00;;
21237;SDS011;10777;50.828;3.264;2022-08-01T00:42:24;13.93;;;4.10;;
21237;SDS011;10777;50.828;3.264;2022-08-01T00:44:50;11.02;;;3.88;;
21237;SDS011;10777;50.828;3.264;2022-08-01T00:47:15;13.70;;;4.50;;
21237;SDS011;10777;50.828;3.264;2022-08-01T00:49:41;7.82;;;4.28;;
21237;SDS011;10777;50.828;3.264;2022-08-01T00:52:07;13.23;;;4.78;;
21237;SDS011;10777;50.828;3.264;2022-08-01T00:54:34;13.98;;;4.40;;
21237;SDS011;10777;50.828;3.264;2022-08-01T00:57:00;15.57;;;5.35;;
21237;SDS011;10777;50.828;3.264;2022-08-01T00:59:25;17.55;;;5.47;;
21237;SDS011;10777;50.828;3.264;2022-08-01T01:01:51;9.10;;;4.70;;
21237;SDS011;10777;50.828;3.264;2022-08-01T01:04:17;17.92;;;5.47;;
21237;SDS011;10777;50.828;3.264;2022-08-01T01:06:45;15.20;;;5.07;;
21237;SDS011;10777;50.828;3.264;2022-08-01T01:09:38;11.77;;;4.72;;
21237;SDS011;10777;50.828;3.264;2022-08-01T01:12:27;18.67;;;5.38;;
21237;SDS011;10777;50.828;3.264;2022-08-01T01:15:08;16.17;;;5.05;;
21237;SDS011;10777;50.828;3.264;2022-08-01T01:17:45;14.35;;;5.22;;
21237;SDS011;10777;50.828;3.264;2022-08-01T01:20:16;12.55;;;5.72;;
21237;SDS011;10777;50.828;3.264;2022-08-01T01:22:48;14.63;;;6.10;;
21237;SDS011;10777;50.828;3.264;2022-08-01T01:25:34;16.33;;;6.38;;
21237;SDS011;10777;50.828;3.264;2022-08-01T01:31:00;19.35;;;9.68;;
21237;SDS011;10777;50.828;3.264;2022-08-01T01:33:30;24.27;;;10.52;;
21237;SDS011;10777;50.828;3.264;2022-08-01T01:36:01;21.65;;;10.90;;
21237;SDS011;10777;50.828;3.264;2022-08-01T01:38:32;24.98;;;12.05;;
21237;SDS011;10777;50.828;3.264;2022-08-01T01:41:01;21.52;;;13.10;;
21237;SDS011;10777;50.828;3.264;2022-08-01T01:43:29;27.15;;;13.90;;
21237;SDS011;10777;50.828;3.264;2022-08-01T01:45:55;23.05;;;12.57;;
21237;SDS011;10777;50.828;3.264;2022-08-01T01:48:22;23.67;;;13.93;;
21237;SDS011;10777;50.828;3.264;2022-08-01T01:50:49;26.75;;;14.30;;
21237;SDS011;10777;50.828;3.264;2022-08-01T01:53:18;29.08;;;16.05;;
21237;SDS011;10777;50.828;3.264;2022-08-01T01:55:46;26.58;;;16.33;;
21237;SDS011;10777;50.828;3.264;2022-08-01T01:58:15;25.58;;;16.65;;
21237;SDS011;10777;50.828;3.264;2022-08-01T02:00:42;26.77;;;16.42;;
21237;SDS011;10777;50.828;3.264;2022-08-01T02:03:10;31.60;;;17.85;;
21237;SDS011;10777;50.828;3.264;2022-08-01T02:05:38;31.10;;;16.75;;
21237;SDS011;10777;50.828;3.264;2022-08-01T02:08:05;30.83;;;16.90;;
21237;SDS011;10777;50.828;3.264;2022-08-01T02:10:32;27.92;;;17.10;;
21237;SDS011;10777;50.828;3.264;2022-08-01T02:13:01;36.55;;;18.90;;
21237;SDS011;10777;50.828;3.264;2022-08-01T02:15:29;33.53;;;20.38;;
21237;SDS011;10777;50.828;3.264;2022-08-01T02:17:56;38.90;;;19.92;;
21237;SDS011;10777;50.828;3.264;2022-08-01T02:20:23;46.42;;;21.02;;
21237;SDS011;10777;50.828;3.264;2022-08-01T02:22:53;43.08;;;20.27;;
21237;SDS011;10777;50.828;3.264;2022-08-01T02:25:27;47.22;;;18.85;;
21237;SDS011;10777;50.828;3.264;2022-08-01T02:27:59;43.90;;;15.70;;
21237;SDS011;10777;50.828;3.264;2022-08-01T02:30:32;40.80;;;16.40;;
21237;SDS011;10777;50.828;3.264;2022-08-01T02:33:16;26.88;;;11.88;;
21237;SDS011;10777;50.828;3.264;2022-08-01T02:35:45;27.40;;;9.90;;
21237;SDS011;10777;50.828;3.264;2022-08-01T02:38:15;30.40;;;9.63;;
21237;SDS011;10777;50.828;3.264;2022-08-01T02:40:45;34.42;;;10.05;;
21237;SDS011;10777;50.828;3.264;2022-08-01T02:43:12;26.37;;;8.77;;
21237;SDS011;10777;50.828;3.264;2022-08-01T02:45:43;27.50;;;9.50;;
21237;SDS011;10777;50.828;3.264;2022-08-01T02:48:13;30.25;;;9.70;;
21237;SDS011;10777;50.828;3.264;2022-08-01T02:50:42;26.02;;;9.55;;
21237;SDS011;10777;50.828;3.264;2022-08-01T02:53:10;21.98;;;8.85;;
21237;SDS011;10777;50.828;3.264;2022-08-01T02:55:38;23.35;;;8.43;;
21237;SDS011;10777;50.828;3.264;2022-08-01T02:58:04;23.38;;;8.52;;
21237;SDS011;10777;50.828;3.264;2022-08-01T03:00:33;28.02;;;8.27;;
21237;SDS011;10777;50.828;3.264;2022-08-01T03:03:01;27.65;;;7.95;;
21237;SDS011;10777;50.828;3.264;2022-08-01T03:05:28;21.00;;;8.35;;
21237;SDS011;10777;50.828;3.264;2022-08-01T03:07:57;34.33;;;10.90;;
21237;SDS011;10777;50.828;3.264;2022-08-01T03:10:25;23.95;;;8.75;;
21237;SDS011;10777;50.828;3.264;2022-08-01T03:12:52;31.10;;;9.48;;
21237;SDS011;10777;50.828;3.264;2022-08-01T03:15:20;27.33;;;9.27;;
21237;SDS011;10777;50.828;3.264;2022-08-01T03:17:49;33.30;;;10.52;;
21237;SDS011;10777;50.828;3.264;2022-08-01T03:20:18;26.10;;;10.45;;
21237;SDS011;10777;50.828;3.264;2022-08-01T03:22:49;46.30;;;11.90;;
21237;SDS011;10777;50.828;3.264;2022-08-01T03:25:18;31.00;;;10.82;;
21237;SDS011;10777;50.828;3.264;2022-08-01T03:27:47;33.45;;;10.07;;
21237;SDS011;10777;50.828;3.264;2022-08-01T03:30:20;33.75;;;11.10;;
21237;SDS011;10777;50.828;3.264;2022-08-01T03:32:48;32.10;;;11.48;;
21237;SDS011;10777;50.828;3.264;2022-08-01T03:35:13;36.67;;;11.63;;
21237;SDS011;10777;50.828;3.264;2022-08-01T03:37:42;31.48;;;10.77;;
21237;SDS011;10777;50.828;3.264;2022-08-01T03:40:13;33.42;;;10.98;;
21237;SDS011;10777;50.828;3.264;2022-08-01T03:42:48;29.50;;;10.70;;
21237;SDS011;10777;50.828;3.264;2022-08-01T03:45:20;26.40;;;10.73;;
21237;SDS011;10777;50.828;3.264;2022-08-01T03:47:48;23.85;;;9.50;;
21237;SDS011;10777;50.828;3.264;2022-08-01T03:50:18;22.23;;;8.93;;
21237;SDS011;10777;50.828;3.264;2022-08-01T03:52:47;16.67;;;7.63;;
21237;SDS011;10777;50.828;3.264;2022-08-01T03:55:15;23.58;;;7.80;;
21237;SDS011;10777;50.828;3.264;2022-08-01T03:57:44;17.02;;;7.22;;
21237;SDS011;10777;50.828;3.264;2022-08-01T04:00:10;14.32;;;6.60;;
21237;SDS011;10777;50.828;3.264;2022-08-01T04:02:36;12.77;;;5.90;;
21237;SDS011;10777;50.828;3.264;2022-08-01T04:05:03;13.73;;;6.53;;
21237;SDS011;10777;50.828;3.264;2022-08-01T04:07:30;14.02;;;6.32;;
21237;SDS011;10777;50.828;3.264;2022-08-01T04:09:56;16.10;;;6.82;;
21237;SDS011;10777;50.828;3.264;2022-08-01T04:12:22;12.57;;;6.30;;
21237;SDS011;10777;50.828;3.264;2022-08-01T04:14:49;10.88;;;5.57;;
21237;SDS011;10777;50.828;3.264;2022-08-01T04:17:16;18.77;;;6.40;;
21237;SDS011;10777;50.828;3.264;2022-08-01T04:19:42;14.15;;;6.18;;
21237;SDS011;10777;50.828;3.264;2022-08-01T04:22:10;16.98;;;5.60;;
21237;SDS011;10777;50.828;3.264;2022-08-01T04:24:38;13.48;;;5.30;;
21237;SDS011;10777;50.828;3.264;2022-08-01T04:27:08;13.25;;;4.57;;
21237;SDS011;10777;50.828;3.264;2022-08-01T04:29:38;12.43;;;4.40;;
21237;SDS011;10777;50.828;3.264;2022-08-01T04:32:07;9.07;;;4.50;;
21237;SDS011;10777;50.828;3.264;2022-08-01T04:34:41;6.78;;;3.95;;
21237;SDS011;10777;50.828;3.264;2022-08-01T04:37:11;7.97;;;3.60;;
21237;SDS011;10777;50.828;3.264;2022-08-01T04:39:41;11.73;;;4.22;;
21237;SDS011;10777;50.828;3.264;2022-08-01T04:42:08;6.63;;;3.28;;
21237;SDS011;10777;50.828;3.264;2022-08-01T04:44:35;14.20;;;4.10;;
21237;SDS011;10777;50.828;3.264;2022-08-01T04:47:02;8.60;;;4.00;;
21237;SDS011;10777;50.828;3.264;2022-08-01T04:49:31;9.23;;;3.88;;
21237;SDS011;10777;50.828;3.264;2022-08-01T04:51:58;8.45;;;3.95;;
21237;SDS011;10777;50.828;3.264;2022-08-01T04:54:25;6.03;;;3.72;;
21237;SDS011;10777;50.828;3.264;2022-08-01T04:56:52;11.25;;;3.28;;
21237;SDS011;10777;50.828;3.264;2022-08-01T04:59:20;13.60;;;4.03;;
21237;SDS011;10777;50.828;3.264;2022-08-01T05:02:07;12.32;;;4.25;;
21237;SDS011;10777;50.828;3.264;2022-08-01T05:04:34;8.43;;;4.18;;
21237;SDS011;10777;50.828;3.264;2022-08-01T05:07:00;7.82;;;3.95;;
21237;SDS011;10777;50.828;3.264;2022-08-01T05:09:26;9.27;;;3.58;;
21237;SDS011;10777;50.828;3.264;2022-08-01T05:11:51;5.15;;;3.50;;
21237;SDS011;10777;50.828;3.264;2022-08-01T05:14:17;7.10;;;3.58;;
21237;SDS011;10777;50.828;3.264;2022-08-01T05:16:44;7.03;;;3.63;;
21237;SDS011;10777;50.828;3.264;2022-08-01T05:19:10;8.45;;;2.97;;
21237;SDS011;10777;50.828;3.264;2022-08-01T05:21:36;9.93;;;3.08;;
21237;SDS011;10777;50.828;3.264;2022-08-01T05:24:02;10.10;;;3.67;;
21237;SDS011;10777;50.828;3.264;2022-08-01T05:26:29;8.68;;;3.75;;
21237;SDS011;10777;50.828;3.264;2022-08-01T05:28:55;5.22;;;3.58;;
21237;SDS011;10777;50.828;3.264;2022-08-01T05:31:20;7.68;;;3.40;;
21237;SDS011;10777;50.828;3.264;2022-08-01T05:33:46;6.82;;;3.00;;
21237;SDS011;10777;50.828;3.264;2022-08-01T05:36:12;7.88;;;3.65;;
21237;SDS011;10777;50.828;3.264;2022-08-01T05:38:38;9.25;;;2.97;;
21237;SDS011;10777;50.828;3.264;2022-08-01T05:41:03;10.50;;;3.30;;
21237;SDS011;10777;50.828;3.264;2022-08-01T05:43:29;8.13;;;3.20;;
21237;SDS011;10777;50.828;3.264;2022-08-01T05:45:55;9.32;;;3.08;;
21237;SDS011;10777;50.828;3.264;2022-08-01T05:48:21;6.53;;;3.30;;
21237;SDS011;10777;50.828;3.264;2022-08-01T05:50:46;5.40;;;3.17;;
21237;SDS011;10777;50.828;3.264;2022-08-01T05:53:13;7.60;;;3.03;;
21237;SDS011;10777;50.828;3.264;2022-08-01T05:55:38;8.63;;;3.38;;
21237;SDS011;10777;50.828;3.264;2022-08-01T05:58:04;11.25;;;3.50;;
21237;SDS011;10777;50.828;3.264;2022-08-01T06:00:31;7.55;;;2.85;;
21237;SDS011;10777;50.828;3.264;2022-08-01T06:02:57;9.45;;;3.70;;
21237;SDS011;10777;50.828;3.264;2022-08-01T06:05:22;7.20;;;4.00;;
21237;SDS011;10777;50.828;3.264;2022-08-01T06:07:48;5.05;;;2.70;;
21237;SDS011;10777;50.828;3.264;2022-08-01T06:10:14;7.57;;;3.25;;
21237;SDS011;10777;50.828;3.264;2022-08-01T06:12:40;5.63;;;2.97;;
21237;SDS011;10777;50.828;3.264;2022-08-01T06:15:06;9.02;;;3.38;;
21237;SDS011;10777;50.828;3.264;2022-08-01T06:17:32;6.25;;;3.28;;
21237;SDS011;10777;50.828;3.264;2022-08-01T06:19:59;4.18;;;2.90;;
21237;SDS011;10777;50.828;3.264;2022-08-01T06:22:25;5.53;;;3.30;;
21237;SDS011;10777;50.828;3.264;2022-08-01T06:24:51;5.35;;;3.15;;
21237;SDS011;10777;50.828;3.264;2022-08-01T06:27:17;7.22;;;3.85;;
21237;SDS011;10777;50.828;3.264;2022-08-01T06:29:43;4.68;;;3.20;;
21237;SDS011;10777;50.828;3.264;2022-08-01T06:32:09;7.88;;;3.22;;
21237;SDS011;10777;50.828;3.264;2022-08-01T06:34:35;2.90;;;2.60;;
21237;SDS011;10777;50.828;3.264;2022-08-01T06:37:01;5.40;;;3.10;;
21237;SDS011;10777;50.828;3.264;2022-08-01T06:39:26;6.07;;;4.03;;
21237;SDS011;10777;50.828;3.264;2022-08-01T06:41:52;5.15;;;2.95;;
21237;SDS011;10777;50.828;3.264;2022-08-01T06:44:19;3.03;;;2.50;;
21237;SDS011;10777;50.828;3.264;2022-08-01T06:46:45;4.65;;;2.75;;
21237;SDS011;10777;50.828;3.264;2022-08-01T06:49:10;4.88;;;3.10;;
21237;SDS011;10777;50.828;3.264;2022-08-01T06:51:36;5.78;;;2.63;;
21237;SDS011;10777;50.828;3.264;2022-08-01T06:54:02;4.05;;;2.30;;
21237;SDS011;10777;50.828;3.264;2022-08-01T06:56:28;6.80;;;3.70;;
21237;SDS011;10777;50.828;3.264;2022-08-01T06:58:54;6.65;;;2.45;;
21237;SDS011;10777;50.828;3.264;2022-08-01T07:01:26;5.75;;;2.75;;
21237;SDS011;10777;50.828;3.264;2022-08-01T07:03:53;5.60;;;2.28;;
21237;SDS011;10777;50.828;3.264;2022-08-01T07:06:19;6.07;;;2.83;;
21237;SDS011;10777;50.828;3.264;2022-08-01T07:08:46;8.82;;;2.70;;
21237;SDS011;10777;50.828;3.264;2022-08-01T07:11:11;4.15;;;2.28;;
21237;SDS011;10777;50.828;3.264;2022-08-01T07:13:37;5.35;;;2.38;;
21237;SDS011;10777;50.828;3.264;2022-08-01T07:16:03;5.13;;;2.50;;
21237;SDS011;10777;50.828;3.264;2022-08-01T07:18:29;3.80;;;2.28;;
21237;SDS011;10777;50.828;3.264;2022-08-01T07:20:55;5.70;;;2.58;;
21237;SDS011;10777;50.828;3.264;2022-08-01T07:23:20;5.85;;;2.63;;
21237;SDS011;10777;50.828;3.264;2022-08-01T07:25:46;5.13;;;2.97;;
21237;SDS011;10777;50.828;3.264;2022-08-01T07:28:14;5.85;;;3.15;;
21237;SDS011;10777;50.828;3.264;2022-08-01T07:30:40;5.15;;;2.80;;
21237;SDS011;10777;50.828;3.264;2022-08-01T07:33:07;5.15;;;2.30;;
21237;SDS011;10777;50.828;3.264;2022-08-01T07:35:33;5.47;;;3.00;;
21237;SDS011;10777;50.828;3.264;2022-08-01T07:37:59;4.55;;;2.38;;
21237;SDS011;10777;50.828;3.264;2022-08-01T07:40:25;7.07;;;2.70;;
21237;SDS011;10777;50.828;3.264;2022-08-01T07:42:50;3.25;;;2.78;;
21237;SDS011;10777;50.828;3.264;2022-08-01T07:45:16;6.38;;;2.30;;
21237;SDS011;10777;50.828;3.264;2022-08-01T07:47:42;5.53;;;2.55;;
21237;SDS011;10777;50.828;3.264;2022-08-01T07:50:08;6.80;;;3.30;;
21237;SDS011;10777;50.828;3.264;2022-08-01T07:52:34;5.30;;;3.20;;
21237;SDS011;10777;50.828;3.264;2022-08-01T07:55:00;8.98;;;3.75;;
21237;SDS011;10777;50.828;3.264;2022-08-01T07:57:27;9.27;;;3.38;;
21237;SDS011;10777;50.828;3.264;2022-08-01T07:59:52;6.18;;;3.10;;
21237;SDS011;10777;50.828;3.264;2022-08-01T08:02:19;4.00;;;3.10;;
21237;SDS011;10777;50.828;3.264;2022-08-01T08:04:44;6.13;;;2.78;;
21237;SDS011;10777;50.828;3.264;2022-08-01T08:07:10;3.13;;;2.25;;
21237;SDS011;10777;50.828;3.264;2022-08-01T08:09:36;6.10;;;2.50;;
21237;SDS011;10777;50.828;3.264;2022-08-01T08:12:01;6.95;;;4.43;;
21237;SDS011;10777;50.828;3.264;2022-08-01T08:14:27;3.47;;;2.22;;
21237;SDS011;10777;50.828;3.264;2022-08-01T08:16:54;5.25;;;2.75;;
21237;SDS011;10777;50.828;3.264;2022-08-01T08:19:20;4.28;;;2.35;;
21237;SDS011;10777;50.828;3.264;2022-08-01T08:21:46;8.55;;;4.47;;
21237;SDS011;10777;50.828;3.264;2022-08-01T08:24:11;2.85;;;2.15;;
21237;SDS011;10777;50.828;3.264;2022-08-01T08:26:44;7.40;;;3.30;;
21237;SDS011;10777;50.828;3.264;2022-08-01T08:29:11;13.10;;;3.90;;
21237;SDS011;10777;50.828;3.264;2022-08-01T08:31:37;4.00;;;2.75;;
21237;SDS011;10777;50.828;3.264;2022-08-01T08:34:03;7.53;;;3.85;;
21237;SDS011;10777;50.828;3.264;2022-08-01T08:36:29;3.33;;;2.40;;
21237;SDS011;10777;50.828;3.264;2022-08-01T08:38:55;6.03;;;2.70;;
21237;SDS011;10777;50.828;3.264;2022-08-01T08:41:21;5.63;;;2.42;;
21237;SDS011;10777;50.828;3.264;2022-08-01T08:43:47;3.33;;;2.35;;
21237;SDS011;10777;50.828;3.264;2022-08-01T08:46:14;3.70;;;2.67;;
21237;SDS011;10777;50.828;3.264;2022-08-01T08:48:40;6.22;;;2.63;;
21237;SDS011;10777;50.828;3.264;2022-08-01T08:51:07;3.47;;;2.15;;
21237;SDS011;10777;50.828;3.264;2022-08-01T08:53:36;5.80;;;2.00;;
21237;SDS011;10777;50.828;3.264;2022-08-01T08:56:04;6.10;;;2.17;;
21237;SDS011;10777;50.828;3.264;2022-08-01T08:58:33;5.43;;;2.30;;
21237;SDS011;10777;50.828;3.264;2022-08-01T09:01:04;4.97;;;2.20;;
21237;SDS011;10777;50.828;3.264;2022-08-01T09:03:32;7.82;;;2.08;;
21237;SDS011;10777;50.828;3.264;2022-08-01T09:05:58;4.38;;;2.10;;
21237;SDS011;10777;50.828;3.264;2022-08-01T09:08:26;5.72;;;2.60;;
21237;SDS011;10777;50.828;3.264;2022-08-01T09:10:52;4.18;;;2.42;;
21237;SDS011;10777;50.828;3.264;2022-08-01T09:13:18;3.75;;;2.30;;
21237;SDS011;10777;50.828;3.264;2022-08-01T09:15:46;5.40;;;2.65;;
21237;SDS011;10777;50.828;3.264;2022-08-01T09:18:26;4.90;;;2.15;;
21237;SDS011;10777;50.828;3.264;2022-08-01T09:21:11;3.85;;;2.05;;
21237;SDS011;10777;50.828;3.264;2022-08-01T09:23:42;6.38;;;2.05;;
21237;SDS011;10777;50.828;3.264;2022-08-01T09:26:18;3.40;;;1.88;;
21237;SDS011;10777;50.828;3.264;2022-08-01T09:28:46;6.45;;;2.17;;
21237;SDS011;10777;50.828;3.264;2022-08-01T09:31:14;4.93;;;2.40;;
21237;SDS011;10777;50.828;3.264;2022-08-01T09:33:50;3.50;;;1.83;;
21237;SDS011;10777;50.828;3.264;2022-08-01T09:36:43;3.95;;;2.13;;
21237;SDS011;10777;50.828;3.264;2022-08-01T09:39:20;6.22;;;2.22;;
21237;SDS011;10777;50.828;3.264;2022-08-01T09:41:47;4.20;;;2.17;;
21237;SDS011;10777;50.828;3.264;2022-08-01T09:44:14;2.88;;;2.08;;
21237;SDS011;10777;50.828;3.264;2022-08-01T09:46:51;5.03;;;2.30;;
21237;SDS011;10777;50.828;3.264;2022-08-01T09:49:34;5.10;;;2.20;;
21237;SDS011;10777;50.828;3.264;2022-08-01T09:52:19;4.47;;;2.17;;
21237;SDS011;10777;50.828;3.264;2022-08-01T09:55:03;4.60;;;1.63;;
21237;SDS011;10777;50.828;3.264;2022-08-01T09:57:31;5.32;;;2.22;;
21237;SDS011;10777;50.828;3.264;2022-08-01T09:59:58;4.93;;;1.83;;
21237;SDS011;10777;50.828;3.264;2022-08-01T10:02:28;7.15;;;2.05;;
21237;SDS011;10777;50.828;3.264;2022-08-01T10:05:00;5.78;;;2.35;;
21237;SDS011;10777;50.828;3.264;2022-08-01T10:07:28;4.03;;;1.90;;
21237;SDS011;10777;50.828;3.264;2022-08-01T10:09:53;7.30;;;2.65;;
21237;SDS011;10777;50.828;3.264;2022-08-01T10:12:20;4.18;;;2.40;;
21237;SDS011;10777;50.828;3.264;2022-08-01T10:14:49;3.58;;;1.80;;
21237;SDS011;10777;50.828;3.264;2022-08-01T10:17:17;3.35;;;2.05;;
21237;SDS011;10777;50.828;3.264;2022-08-01T10:19:45;3.13;;;1.63;;
21237;SDS011;10777;50.828;3.264;2022-08-01T10:22:12;3.67;;;1.90;;
21237;SDS011;10777;50.828;3.264;2022-08-01T10:24:41;2.63;;;1.70;;
21237;SDS011;10777;50.828;3.264;2022-08-01T10:27:13;4.70;;;2.00;;
21237;SDS011;10777;50.828;3.264;2022-08-01T10:29:43;3.08;;;2.30;;
21237;SDS011;10777;50.828;3.264;2022-08-01T10:32:16;2.55;;;1.85;;
21237;SDS011;10777;50.828;3.264;2022-08-01T10:34:42;5.55;;;2.22;;
21237;SDS011;10777;50.828;3.264;2022-08-01T10:37:09;5.70;;;2.42;;
21237;SDS011;10777;50.828;3.264;2022-08-01T10:39:37;4.10;;;2.22;;
21237;SDS011;10777;50.828;3.264;2022-08-01T10:42:05;4.35;;;2.22;;
21237;SDS011;10777;50.828;3.264;2022-08-01T10:44:34;6.25;;;2.65;;
21237;SDS011;10777;50.828;3.264;2022-08-01T10:47:04;7.55;;;2.83;;
21237;SDS011;10777;50.828;3.264;2022-08-01T10:49:34;4.30;;;1.73;;
21237;SDS011;10777;50.828;3.264;2022-08-01T10:52:13;5.25;;;1.88;;
21237;SDS011;10777;50.828;3.264;2022-08-01T10:54:40;3.47;;;1.92;;
21237;SDS011;10777;50.828;3.264;2022-08-01T10:57:06;6.25;;;2.08;;
21237;SDS011;10777;50.828;3.264;2022-08-01T10:59:32;4.55;;;1.73;;
21237;SDS011;10777;50.828;3.264;2022-08-01T11:02:00;20.23;;;8.65;;
21237;SDS011;10777;50.828;3.264;2022-08-01T11:04:32;3.95;;;2.15;;
21237;SDS011;10777;50.828;3.264;2022-08-01T11:07:07;3.58;;;1.67;;
21237;SDS011;10777;50.828;3.264;2022-08-01T11:09:43;5.70;;;1.80;;
21237;SDS011;10777;50.828;3.264;2022-08-01T11:12:13;4.18;;;2.50;;
21237;SDS011;10777;50.828;3.264;2022-08-01T11:17:49;6.20;;;2.20;;
21237;SDS011;10777;50.828;3.264;2022-08-01T11:20:18;7.15;;;2.08;;
21237;SDS011;10777;50.828;3.264;2022-08-01T11:28:31;2.38;;;1.85;;
21237;SDS011;10777;50.828;3.264;2022-08-01T11:33:52;5.65;;;1.98;;
21237;SDS011;10777;50.828;3.264;2022-08-01T11:36:17;3.85;;;2.20;;
21237;SDS011;10777;50.828;3.264;2022-08-01T11:38:47;4.13;;;1.85;;
21237;SDS011;10777;50.828;3.264;2022-08-01T11:41:35;2.88;;;2.08;;
21237;SDS011;10777;50.828;3.264;2022-08-01T11:44:18;2.58;;;1.75;;
21237;SDS011;10777;50.828;3.264;2022-08-01T11:46:52;7.00;;;1.88;;
21237;SDS011;10777;50.828;3.264;2022-08-01T11:52:27;11.20;;;2.17;;
21237;SDS011;10777;50.828;3.264;2022-08-01T11:54:57;3.15;;;1.88;;
21237;SDS011;10777;50.828;3.264;2022-08-01T11:57:34;4.30;;;1.98;;
21237;SDS011;10777;50.828;3.264;2022-08-01T12:00:04;3.50;;;1.90;;
21237;SDS011;10777;50.828;3.264;2022-08-01T12:02:56;5.10;;;1.55;;
21237;SDS011;10777;50.828;3.264;2022-08-01T12:05:23;3.80;;;2.20;;
21237;SDS011;10777;50.828;3.264;2022-08-01T12:07:49;2.53;;;1.70;;
21237;SDS011;10777;50.828;3.264;2022-08-01T12:10:17;5.05;;;1.80;;
21237;SDS011;10777;50.828;3.264;2022-08-01T12:12:47;7.00;;;1.80;;
21237;SDS011;10777;50.828;3.264;2022-08-01T12:15:16;3.42;;;2.40;;
21237;SDS011;10777;50.828;3.264;2022-08-01T12:17:45;2.28;;;1.73;;
21237;SDS011;10777;50.828;3.264;2022-08-01T12:20:14;5.45;;;2.50;;
21237;SDS011;10777;50.828;3.264;2022-08-01T12:22:44;3.28;;;1.45;;
21237;SDS011;10777;50.828;3.264;2022-08-01T12:25:11;2.90;;;1.60;;
21237;SDS011;10777;50.828;3.264;2022-08-01T12:27:39;2.53;;;1.25;;
21237;SDS011;10777;50.828;3.264;2022-08-01T12:30:08;2.08;;;1.58;;
21237;SDS011;10777;50.828;3.264;2022-08-01T12:32:36;2.30;;;1.60;;
21237;SDS011;10777;50.828;3.264;2022-08-01T12:35:08;2.22;;;1.33;;
21237;SDS011;10777;50.828;3.264;2022-08-01T12:37:36;2.38;;;1.23;;
21237;SDS011;10777;50.828;3.264;2022-08-01T12:40:12;6.47;;;3.13;;
21237;SDS011;10777;50.828;3.264;2022-08-01T12:42:40;4.50;;;2.83;;
21237;SDS011;10777;50.828;3.264;2022-08-01T12:45:08;4.15;;;1.30;;
21237;SDS011;10777;50.828;3.264;2022-08-01T12:47:37;2.08;;;1.27;;
21237;SDS011;10777;50.828;3.264;2022-08-01T12:50:05;1.35;;;0.88;;
21237;SDS011;10777;50.828;3.264;2022-08-01T12:52:32;2.25;;;1.35;;
21237;SDS011;10777;50.828;3.264;2022-08-01T12:57:46;3.60;;;1.20;;
21237;SDS011;10777;50.828;3.264;2022-08-01T13:00:18;2.00;;;1.10;;
21237;SDS011;10777;50.828;3.264;2022-08-01T13:02:47;3.53;;;1.20;;
21237;SDS011;10777;50.828;3.264;2022-08-01T13:05:15;1.50;;;1.08;;
21237;SDS011;10777;50.828;3.264;2022-08-01T13:07:45;2.38;;;1.10;;
21237;SDS011;10777;50.828;3.264;2022-08-01T13:10:15;4.30;;;1.42;;
21237;SDS011;10777;50.828;3.264;2022-08-01T13:12:52;1.73;;;1.00;;
21237;SDS011;10777;50.828;3.264;2022-08-01T13:15:21;4.55;;;1.10;;
21237;SDS011;10777;50.828;3.264;2022-08-01T13:17:49;2.97;;;0.95;;
21237;SDS011;10777;50.828;3.264;2022-08-01T13:20:24;6.63;;;1.20;;
21237;SDS011;10777;50.828;3.264;2022-08-01T13:22:52;1.88;;;0.90;;
21237;SDS011;10777;50.828;3.264;2022-08-01T13:25:18;2.65;;;1.10;;
21237;SDS011;10777;50.828;3.264;2022-08-01T13:27:45;2.05;;;1.00;;
21237;SDS011;10777;50.828;3.264;2022-08-01T13:30:13;1.85;;;0.90;;
21237;SDS011;10777;50.828;3.264;2022-08-01T13:32:40;1.77;;;1.23;;
21237;SDS011;10777;50.828;3.264;2022-08-01T13:35:09;4.00;;;1.02;;
21237;SDS011;10777;50.828;3.264;2022-08-01T13:37:38;4.30;;;1.05;;
21237;SDS011;10777;50.828;3.264;2022-08-01T13:40:06;1.40;;;0.98;;
21237;SDS011;10777;50.828;3.264;2022-08-01T13:42:32;3.88;;;1.08;;
21237;SDS011;10777;50.828;3.264;2022-08-01T13:44:58;1.55;;;0.90;;
21237;SDS011;10777;50.828;3.264;2022-08-01T13:47:25;4.43;;;1.70;;
21237;SDS011;10777;50.828;3.264;2022-08-01T13:49:51;4.97;;;1.48;;
21237;SDS011;10777;50.828;3.264;2022-08-01T13:52:16;3.92;;;1.60;;
21237;SDS011;10777;50.828;3.264;2022-08-01T13:54:42;6.63;;;1.30;;
21237;SDS011;10777;50.828;3.264;2022-08-01T13:57:08;3.65;;;1.35;;
21237;SDS011;10777;50.828;3.264;2022-08-01T13:59:34;4.88;;;1.45;;
21237;SDS011;10777;50.828;3.264;2022-08-01T14:02:00;4.22;;;1.30;;
21237;SDS011;10777;50.828;3.264;2022-08-01T14:04:26;4.60;;;1.33;;
21237;SDS011;10777;50.828;3.264;2022-08-01T14:06:52;4.13;;;1.15;;
21237;SDS011;10777;50.828;3.264;2022-08-01T14:09:18;5.30;;;0.77;;
21237;SDS011;10777;50.828;3.264;2022-08-01T14:11:44;2.38;;;1.25;;
21237;SDS011;10777;50.828;3.264;2022-08-01T14:14:11;1.75;;;1.02;;
21237;SDS011;10777;50.828;3.264;2022-08-01T14:16:37;2.20;;;1.38;;
21237;SDS011;10777;50.828;3.264;2022-08-01T14:19:04;9.73;;;1.38;;
21237;SDS011;10777;50.828;3.264;2022-08-01T14:21:30;2.35;;;1.17;;
21237;SDS011;10777;50.828;3.264;2022-08-01T14:23:56;2.88;;;0.98;;
21237;SDS011;10777;50.828;3.264;2022-08-01T14:26:22;3.92;;;1.70;;
21237;SDS011;10777;50.828;3.264;2022-08-01T14:28:47;4.63;;;1.38;;
21237;SDS011;10777;50.828;3.264;2022-08-01T14:31:13;7.38;;;1.15;;
21237;SDS011;10777;50.828;3.264;2022-08-01T14:33:39;4.18;;;1.00;;
21237;SDS011;10777;50.828;3.264;2022-08-01T14:36:05;2.10;;;1.05;;
21237;SDS011;10777;50.828;3.264;2022-08-01T14:38:30;4.88;;;1.30;;
21237;SDS011;10777;50.828;3.264;2022-08-01T14:40:56;4.07;;;1.05;;
21237;SDS011;10777;50.828;3.264;2022-08-01T14:43:22;4.35;;;1.27;;
21237;SDS011;10777;50.828;3.264;2022-08-01T14:45:48;3.58;;;1.30;;
21237;SDS011;10777;50.828;3.264;2022-08-01T14:48:16;1.55;;;1.40;;
21237;SDS011;10777;50.828;3.264;2022-08-01T14:50:42;5.63;;;1.25;;
21237;SDS011;10777;50.828;3.264;2022-08-01T14:53:08;3.08;;;1.33;;
21237;SDS011;10777;50.828;3.264;2022-08-01T14:55:34;2.47;;;1.00;;
21237;SDS011;10777;50.828;3.264;2022-08-01T14:57:59;2.70;;;2.03;;
21237;SDS011;10777;50.828;3.264;2022-08-01T15:00:25;1.92;;;1.08;;
21237;SDS011;10777;50.828;3.264;2022-08-01T15:02:51;5.60;;;1.00;;
21237;SDS011;10777;50.828;3.264;2022-08-01T15:05:17;1.00;;;0.90;;
21237;SDS011;10777;50.828;3.264;2022-08-01T15:07:42;37.58;;;2.53;;
21237;SDS011;10777;50.828;3.264;2022-08-01T15:10:08;2.58;;;1.00;;